Latest Weather Observations for Yeppoon

IDQ60801

Issued at 10:32 am EST Friday 28 July 2017 (issued every 30 minutes, with the page automatically refreshed every 10 minutes)

About weather observations | Map of weather stations | Latest weather observations for QLD | Other Formats
Station Details ID: 033294 Name: YEPPOON THE ESPLANADE Lat: -23.14 Lon: 150.75 Height: 5.5 m
Data from the previous 72 hours. | See also: Recent months at Yeppoon
Date/Time
EST
Temp
°C
App
Temp
°C
Dew
Point
°C
Rel
Hum
%
Delta-T
°C
Wind Press
QNH
hPa
Press
MSL
hPa
Rain since
9am
mm
Dir  Spd
km/h
Gust
km/h
Spd
kts
Gust
kts
28/10:30am 21.1 19.1 13.8 63 4.2 E 17 20 9 11 1023.9 1023.9 0.0
28/10:00am 21.6 20.2 13.5 60 4.6 ESE 13 19 7 10 1024.2 1024.2 0.0
28/09:30am 20.9 20.1 12.8 60 4.6 SSW 9 15 5 8 1024.2 1024.2 0.0
28/09:00am 19.4 18.9 12.7 65 3.7 W 7 11 4 6 1024.2 1024.2 0.0
28/08:30am 16.8 15.6 11.5 71 2.9 W 9 13 5 7 1024.0 1024.0 0.0
28/08:00am 14.0 11.5 9.8 76 2.2 W 13 17 7 9 1023.8 1023.8 0.0
28/07:30am 11.5 8.4 8.9 84 1.3 W 15 17 8 9 1023.5 1023.5 0.0
28/07:00am 11.1 8.5 9.2 88 0.9 WNW 13 17 7 9 1023.2 1023.2 0.0
28/06:30am 10.9 8.3 9.5 91 0.7 WNW 13 17 7 9 1023.0 1023.0 0.0
28/06:00am 10.8 8.1 9.1 89 0.8 WNW 13 15 7 8 1023.0 1023.0 0.0
28/05:30am 11.1 8.9 9.4 89 0.9 WNW 11 13 6 7 1022.7 1022.7 0.0
28/05:00am 11.8 9.8 10.2 90 0.8 WNW 11 15 6 8 1022.5 1022.5 0.0
28/04:30am 11.0 8.7 9.1 88 0.9 WNW 11 15 6 8 1022.7 1022.7 0.0
28/04:00am 11.0 9.0 8.6 85 1.2 WNW 9 11 5 6 1022.7 1022.7 0.0
28/03:30am 11.5 8.8 8.9 84 1.3 WNW 13 15 7 8 1022.7 1022.7 0.0
28/03:00am 11.4 8.6 8.6 83 1.4 WNW 13 17 7 9 1023.0 1023.0 0.0
28/02:30am 11.2 8.4 8.4 83 1.4 WNW 13 17 7 9 1022.9 1022.9 0.0
28/02:00am 11.0 8.0 7.7 80 1.6 WNW 13 15 7 8 1022.9 1022.9 0.0
28/01:30am 11.2 8.9 7.3 77 1.9 WNW 9 11 5 6 1023.0 1023.0 0.0
28/01:00am 11.4 8.4 7.9 79 1.7 WNW 13 15 7 8 1023.1 1023.1 0.0
28/12:30am 11.8 8.8 7.9 77 1.9 WNW 13 15 7 8 1023.1 1023.1 0.0
28/12:00am 12.1 9.0 7.4 73 2.3 WNW 13 15 7 8 1023.2 1023.2 0.0
 
Date/Time
EST
Temp
°C
App
Temp
°C
Dew
Point
°C
Rel
Hum
%
Delta-T
°C
Wind Press
QNH
hPa
Press
MSL
hPa
Rain since
9am
mm
Dir  Spd
km/h
Gust
km/h
Spd
kts
Gust
kts
27/11:30pm 11.9 9.1 8.4 79 1.7 WNW 13 17 7 9 1023.2 1023.2 0.0
27/11:00pm 11.5 9.4 8.2 80 1.6 WNW 9 11 5 6 1023.2 1023.2 0.0
27/10:30pm 11.9 10.0 8.9 82 1.5 WNW 9 13 5 7 1023.3 1023.3 0.0
27/10:00pm 11.5 9.3 8.0 79 1.7 WNW 9 11 5 6 1023.2 1023.2 0.0
27/09:30pm 11.8 10.0 7.9 77 1.9 WNW 7 9 4 5 1023.0 1023.0 0.0
27/09:00pm 12.4 10.8 8.1 75 2.1 WNW 6 9 3 5 1022.9 1022.9 0.0
27/08:30pm 13.6 11.0 7.6 67 2.9 WNW 11 13 6 7 1022.8 1022.8 0.0
27/08:00pm 13.6 11.4 7.8 68 2.8 NW 9 13 5 7 1022.5 1022.5 0.0
27/07:30pm 14.1 12.5 8.9 71 2.6 NNW 7 9 4 5 1022.2 1022.2 0.0
27/07:00pm 15.2 13.1 8.4 64 3.4 N 9 11 5 6 1021.8 1021.8 0.0
27/06:30pm 16.2 14.6 10.3 68 3.1 NNE 9 11 5 6 1021.5 1021.5 0.0
27/06:00pm 18.0 18.3 10.9 63 3.8 CALM 0 0 0 0 1020.8 1020.8 0.0
27/05:30pm 19.8 18.6 11.6 59 4.5 NNE 9 9 5 5 1020.6 1020.6 0.0
27/05:00pm 20.5 20.1 14.2 67 3.6 NNE 9 11 5 6 1020.7 1020.7 0.0
27/04:30pm 20.9 20.5 14.1 65 3.9 NNE 9 13 5 7 1020.8 1020.8 0.0
27/04:00pm 21.2 21.1 13.9 63 4.2 NNE 7 9 4 5 1020.6 1020.6 0.0
27/03:30pm 21.6 20.9 13.2 59 4.8 NNE 9 11 5 6 1020.3 1020.3 0.0
27/03:00pm 21.8 20.7 12.1 54 5.4 NNE 9 13 5 7 1020.1 1020.1 0.0
27/02:30pm 22.0 20.5 12.0 53 5.6 NE 11 13 6 7 1020.2 1020.2 0.0
27/02:00pm 22.1 20.9 12.9 56 5.2 NE 11 15 6 8 1020.6 1020.6 0.0
27/01:30pm 22.1 21.1 13.5 58 5.0 NE 11 13 6 7 1021.3 1021.3 0.0
27/01:00pm 21.7 21.5 15.8 69 3.5 ENE 11 13 6 7 1021.6 1021.6 0.0
27/12:30pm 21.4 21.0 15.3 68 3.6 ENE 11 13 6 7 1022.1 1022.1 0.0
27/12:00pm 21.0 20.6 15.3 70 3.4 ENE 11 13 6 7 1022.6 1022.6 0.0
27/11:30am 20.8 20.3 14.9 69 3.5 ENE 11 13 6 7 1022.9 1022.9 0.0
27/11:00am 21.0 20.1 14.9 68 3.6 ENE 13 15 7 8 1023.1 1023.1 0.0
27/10:30am 22.3 21.9 13.1 56 5.3 W 7 11 4 6 1023.4 1023.4 0.0
27/10:00am 21.7 21.2 12.8 57 5.0 W 7 11 4 6 1023.6 1023.6 0.0
27/09:30am 18.8 17.4 12.1 65 3.7 W 11 13 6 7 1023.8 1023.8 0.0
27/09:00am 16.5 14.6 11.9 74 2.5 W 13 15 7 8 1023.8 1023.8 0.0
27/08:30am 14.5 12.7 10.7 78 2.0 W 11 17 6 9 1023.5 1023.5 0.0
27/08:00am 12.2 9.7 9.6 84 1.3 W 13 17 7 9 1023.1 1023.1 0.0
27/07:30am 10.2 7.3 8.3 88 0.9 W 13 17 7 9 1022.6 1022.6 0.0
27/07:00am 10.2 8.2 8.5 89 0.8 W 9 13 5 7 1022.0 1022.0 0.0
27/06:30am 9.1 5.8 7.9 92 0.6 W 15 17 8 9 1021.9 1021.9 0.0
27/06:00am 9.1 5.8 8.0 93 0.5 W 15 17 8 9 1021.8 1021.8 0.0
27/05:30am 9.4 6.2 8.3 93 0.5 W 15 19 8 10 1021.7 1021.7 0.0
27/05:00am 9.4 6.2 8.3 93 0.5 W 15 19 8 10 1021.6 1021.6 0.0
27/04:30am 9.8 7.0 8.7 93 0.5 W 13 17 7 9 1021.6 1021.6 0.0
27/04:00am 10.6 8.0 9.5 93 0.5 W 13 15 7 8 1021.5 1021.5 0.0
27/03:30am 10.5 7.5 9.4 93 0.5 W 15 17 8 9 1021.5 1021.5 0.0
27/03:00am 11.6 10.1 10.7 94 0.5 W 9 13 5 7 1021.8 1021.8 0.0
27/02:30am 11.0 8.2 9.9 93 0.6 W 15 17 8 9 1021.7 1021.7 0.0
27/02:00am 11.8 9.6 10.7 93 0.6 W 13 17 7 9 1021.7 1021.7 0.0
27/01:30am 11.9 9.7 10.8 93 0.6 WNW 13 15 7 8 1021.8 1021.8 0.0
27/01:00am 11.9 9.6 10.6 92 0.7 WNW 13 13 7 7 1021.7 1021.7 0.0
27/12:30am 12.3 10.6 11.2 93 0.6 WNW 11 15 6 8 1021.9 1021.9 0.0
27/12:00am 12.6 10.9 11.2 91 0.7 WNW 11 15 6 8 1022.0 1022.0 0.0
 
Date/Time
EST
Temp
°C
App
Temp
°C
Dew
Point
°C
Rel
Hum
%
Delta-T
°C
Wind Press
QNH
hPa
Press
MSL
hPa
Rain since
9am
mm
Dir  Spd
km/h
Gust
km/h
Spd
kts
Gust
kts
26/11:30pm 13.0 11.4 11.6 91 0.7 WNW 11 15 6 8 1022.1 1022.1 0.0
26/11:00pm 13.1 11.5 11.7 91 0.7 WNW 11 15 6 8 1022.0 1022.0 0.0
26/10:30pm 13.0 10.7 11.6 91 0.7 WNW 15 17 8 9 1022.1 1022.1 0.0
26/10:00pm 12.7 11.2 10.6 87 1.1 WNW 9 11 5 6 1022.1 1022.1 0.0
26/09:30pm 13.2 11.5 11.3 88 1.0 NW 11 13 6 7 1022.0 1022.0 0.0
26/09:00pm 13.4 12.6 11.1 86 1.2 NE 6 9 3 5 1022.1 1022.1 0.0
26/08:30pm 13.8 13.1 11.5 86 1.2 NE 6 6 3 3 1022.0 1022.0 0.0
26/08:00pm 14.4 13.8 11.6 83 1.5 NE 6 6 3 3 1021.9 1021.9 0.0
26/07:30pm 15.3 15.8 11.5 78 2.0 CALM 0 7 0 4 1021.7 1021.7 0.0
26/07:00pm 17.8 17.3 12.0 69 3.2 NE 6 11 3 6 1021.6 1021.6 0.0
26/06:30pm 19.9 19.3 14.5 71 3.1 NE 11 13 6 7 1021.4 1021.4 0.0
26/06:00pm 20.4 18.8 12.9 62 4.2 NE 13 15 7 8 1021.1 1021.1 0.0
26/05:30pm 20.7 19.4 12.4 59 4.7 NE 11 13 6 7 1020.8 1020.8 0.0
26/05:00pm 20.8 19.3 13.0 61 4.4 NE 13 15 7 8 1020.7 1020.7 0.0
26/04:30pm 21.2 19.5 12.6 58 4.9 NE 13 15 7 8 1020.6 1020.6 0.0
26/04:00pm 21.6 20.5 13.2 59 4.8 NE 11 13 6 7 1020.6 1020.6 0.0
26/03:30pm 21.8 20.3 13.2 58 4.9 NE 13 15 7 8 1020.5 1020.5 0.0
26/03:00pm 21.8 20.2 12.9 57 5.1 ENE 13 15 7 8 1020.5 1020.5 0.0
26/02:30pm 21.9 20.6 13.8 60 4.7 E 13 15 7 8 1020.7 1020.7 0.0
26/02:00pm 21.7 19.6 12.3 55 5.3 E 15 17 8 9 1020.8 1020.8 0.0
26/01:30pm 21.9 20.1 12.2 54 5.5 E 13 15 7 8 1021.2 1021.2 0.0
26/01:00pm 22.0 20.1 11.7 52 5.7 E 13 15 7 8 1021.5 1021.5 0.0
26/12:30pm 21.9 19.8 12.5 55 5.3 E 15 15 8 8 1021.9 1021.9 0.0
26/12:00pm 21.8 20.0 13.2 58 4.9 E 15 17 8 9 1022.4 1022.4 0.0
26/11:30am 22.0 20.8 13.9 60 4.7 E 13 15 7 8 1022.8 1022.8 0.0
26/11:00am 22.0 20.9 13.1 57 5.1 E 11 15 6 8 1023.2 1023.2 0.0
26/10:30am 21.9 20.1 11.0 50 6.0 E 11 15 6 8 1023.4 1023.4 0.0
26/10:00am 21.7 20.1 11.4 52 5.7 E 11 15 6 8 1023.4 1023.4 0.0
26/09:30am 20.3 19.3 12.3 60 4.5 WSW 9 11 5 6 1023.4 1023.4 0.0
26/09:00am 18.1 17.6 12.5 70 3.1 W 7 11 4 6 1023.5 1023.5 0.0
26/08:30am 15.4 13.4 11.6 78 2.0 W 13 15 7 8 1023.3 1023.3 0.0
26/08:00am 13.2 11.3 10.4 83 1.4 W 11 15 6 8 1023.1 1023.1 0.0
26/07:30am 11.4 8.8 9.5 88 1.0 WSW 13 15 7 8 1022.9 1022.9 0.0
26/07:00am 10.4 7.7 9.0 91 0.7 W 13 17 7 9 1022.6 1022.6 0.0
26/06:30am 10.4 8.1 9.0 91 0.7 W 11 15 6 8 1022.5 1022.5 0.0
26/06:00am 11.2 8.3 9.6 90 0.8 W 15 17 8 9 1022.3 1022.3 0.0
26/05:30am 12.0 10.1 10.4 90 0.8 W 11 15 6 8 1021.9 1021.9 0.0
26/05:00am 12.2 10.0 10.8 91 0.7 W 13 15 7 8 1021.6 1021.6 0.0
26/04:30am 12.1 9.9 10.8 92 0.7 W 13 15 7 8 1021.4 1021.4 0.0
26/04:00am 12.0 9.7 10.6 91 0.7 W 13 15 7 8 1021.5 1021.5 0.0
26/03:30am 12.3 10.1 10.7 90 0.8 W 13 15 7 8 1021.6 1021.6 0.0
26/03:00am 12.9 10.8 11.3 90 0.8 W 13 15 7 8 1021.5 1021.5 0.0
26/02:30am 13.1 11.0 11.3 89 1.0 W 13 15 7 8 1021.6 1021.6 0.0
26/02:00am 13.0 10.9 11.1 88 1.0 W 13 15 7 8 1021.8 1021.8 0.0
26/01:30am 12.9 10.8 11.0 88 1.0 WNW 13 15 7 8 1021.8 1021.8 0.0
26/01:00am 12.7 10.8 10.6 87 1.1 WNW 11 13 6 7 1022.0 1022.0 0.0
26/12:30am 12.9 10.7 10.8 87 1.1 WNW 13 15 7 8 1022.2 1022.2 0.0
26/12:00am 13.4 11.7 11.3 87 1.1 WNW 11 13 6 7 1022.3 1022.3 0.0
 
Date/Time
EST
Temp
°C
App
Temp
°C
Dew
Point
°C
Rel
Hum
%
Delta-T
°C
Wind Press
QNH
hPa
Press
MSL
hPa
Rain since
9am
mm
Dir  Spd
km/h
Gust
km/h
Spd
kts
Gust
kts
25/11:30pm 13.4 12.0 10.8 84 1.4 ENE 9 11 5 6 1022.5 1022.5 0.0
25/11:00pm 14.0 13.0 11.0 82 1.6 ENE 7 9 4 5 1022.7 1022.7 0.0
25/10:30pm 15.2 15.2 11.2 77 2.1 ENE 2 7 1 4 1022.6 1022.6 0.0
25/10:20pm 15.6 15.1 10.6 72 2.6 ENE 4 6 2 3 1022.6 1022.6 0.0
25/10:00pm 20.6 18.9 13.6 64 4.0 NE 15 17 8 9 1022.5 1022.5 0.0
25/09:30pm 20.6 19.3 14.7 69 3.5 NE 15 20 8 11 1022.4 1022.4 0.0
25/09:00pm 20.6 18.2 13.8 65 3.9 NE 19 20 10 11 1022.3 1022.3 0.0
25/08:30pm 20.6 18.4 14.3 67 3.7 ENE 19 22 10 12 1022.1 1022.1 0.0
25/08:00pm 20.6 18.1 13.6 64 4.0 NE 19 20 10 11 1022.0 1022.0 0.0
25/07:30pm 20.5 18.4 13.7 65 3.9 NE 17 19 9 10 1021.9 1021.9 0.0
25/07:00pm 20.3 19.4 13.7 66 3.8 NE 11 15 6 8 1021.9 1021.9 0.0
25/06:30pm 20.2 19.2 13.4 65 3.9 NE 11 13 6 7 1021.6 1021.6 0.0
25/06:00pm 20.1 18.2 13.1 64 4.0 NE 15 19 8 10 1021.4 1021.4 0.0
25/05:30pm 20.4 18.3 12.4 60 4.5 NE 15 17 8 9 1021.0 1021.0 0.0
25/05:00pm 20.5 18.7 13.2 63 4.1 NE 15 17 8 9 1020.9 1020.9 0.0
25/04:30pm 20.8 19.1 12.5 59 4.7 NE 13 15 7 8 1020.7 1020.7 0.0
25/04:00pm 21.2 19.5 12.3 57 5.0 NE 13 17 7 9 1020.6 1020.6 0.0
25/03:30pm 21.5 19.9 12.9 58 4.9 E 13 15 7 8 1020.6 1020.6 0.0
25/03:00pm 21.6 19.1 11.0 51 5.8 E 15 17 8 9 1020.6 1020.6 0.0
25/02:30pm 21.5 19.4 12.4 56 5.1 E 15 17 8 9 1020.6 1020.6 0.0
25/02:00pm 21.5 19.0 12.4 56 5.1 E 17 19 9 10 1020.9 1020.9 0.0
25/01:30pm 21.3 19.0 13.0 59 4.7 E 17 20 9 11 1021.2 1021.2 0.0
25/01:00pm 21.3 19.0 13.0 59 4.7 E 17 22 9 12 1021.5 1021.5 0.0
25/12:30pm 21.4 18.6 12.5 57 5.0 E 19 24 10 13 1022.0 1022.0 0.0
25/12:00pm 21.4 18.3 11.7 54 5.4 E 19 22 10 12 1022.5 1022.5 0.0
25/11:30am 22.2 18.9 9.4 44 6.9 ESE 17 20 9 11 1023.0 1023.0 0.0
25/11:00am 22.2 19.2 10.7 48 6.3 ESE 17 24 9 13 1023.5 1023.5 0.0

Other Formats:

Comma delimited format used in spreadsheet applications
http://www.bom.gov.au/fwo/IDQ60801/IDQ60801.94373.axf

JavaScript Object Notation format (JSON) in row-major order
http://www.bom.gov.au/fwo/IDQ60801/IDQ60801.94373.json